Time;durP1;ratioP1;P1;durP2;ratioP2;P2;SDS_P1;SDS_P2;PMS_P1;PMS_P2;Temp;Humidity;BMP_temperature;BMP_pressure;BME280_temperature;BME280_humidity;BME280_pressure;Samples;Min_cycle;Max_cycle;Signal;HPM_P1;HPM_P2
2023/03/23 00:01:30;;;;;;;6.90;5.37;;;;;;;11.14;77.40;98609.38;1655352;84;21079;-57
2023/03/23 00:03:56;;;;;;;7.83;5.08;;;;;;;11.12;77.32;98606.06;1636767;85;21112;-57
2023/03/23 00:06:25;;;;;;;6.58;5.22;;;;;;;11.06;77.31;98607.75;1644998;83;20998;-57
2023/03/23 00:08:59;;;;;;;6.47;4.40;;;;;;;11.02;77.25;98603.69;1654724;84;21071;-58
2023/03/23 00:11:26;;;;;;;8.40;5.15;;;;;;;10.95;77.26;98598.02;1653763;82;21102;-57
2023/03/23 00:13:53;;;;;;;8.83;5.08;;;;;;;10.88;77.20;98600.20;1648944;83;20979;-57
2023/03/23 00:16:28;;;;;;;6.55;4.70;;;;;;;10.81;77.19;98597.66;1650410;83;21086;-56
2023/03/23 00:18:52;;;;;;;11.78;5.85;;;;;;;10.73;77.23;98590.79;1657794;83;21141;-57
2023/03/23 00:21:20;;;;;;;10.13;5.12;;;;;;;10.66;77.19;98595.56;1646078;83;21106;-57
2023/03/23 00:23:46;;;;;;;7.62;4.85;;;;;;;10.59;77.16;98591.69;1650760;83;21035;-57
2023/03/23 00:26:13;;;;;;;9.97;6.00;;;;;;;10.51;77.21;98597.41;1645356;85;21128;-59
2023/03/23 00:28:40;;;;;;;8.37;5.17;;;;;;;10.45;77.29;98597.80;1655330;83;21145;-57
2023/03/23 00:31:08;;;;;;;6.53;5.15;;;;;;;10.40;77.28;98597.27;1656359;84;21095;-56
2023/03/23 00:33:40;;;;;;;8.13;6.12;;;;;;;10.36;77.31;98599.68;1653313;84;21033;-58
2023/03/23 00:36:09;;;;;;;10.93;5.20;;;;;;;10.31;77.29;98600.47;1652190;84;21020;-57
2023/03/23 00:38:36;;;;;;;8.48;6.00;;;;;;;10.24;77.32;98597.36;1642490;84;21106;-58
2023/03/23 00:41:04;;;;;;;7.47;5.55;;;;;;;10.21;77.42;98587.60;1652145;84;21062;-56
2023/03/23 00:43:32;;;;;;;8.03;6.03;;;;;;;10.15;77.48;98586.70;1656882;83;21575;-57
2023/03/23 00:46:00;;;;;;;9.23;5.17;;;;;;;10.10;77.52;98586.97;1651215;84;21568;-57
2023/03/23 00:48:28;;;;;;;8.00;5.50;;;;;;;10.07;77.55;98577.57;1651004;83;21027;-57
2023/03/23 00:50:55;;;;;;;7.50;4.90;;;;;;;10.06;77.53;98588.95;1644447;84;21101;-57
2023/03/23 00:53:23;;;;;;;7.28;5.90;;;;;;;10.04;77.68;98582.16;1660623;83;21114;-57
2023/03/23 00:55:49;;;;;;;8.85;5.95;;;;;;;9.98;77.84;98569.03;1651722;84;20974;-57
2023/03/23 00:58:16;;;;;;;8.68;5.92;;;;;;;9.94;77.85;98557.14;1649501;84;21042;-57
2023/03/23 01:00:43;;;;;;;7.58;5.53;;;;;;;9.90;77.88;98555.64;1654275;84;21071;-57
2023/03/23 01:03:18;;;;;;;6.67;6.03;;;;;;;9.71;77.92;98542.09;1651598;83;21177;-57
2023/03/23 01:05:41;;;;;;;6.37;5.75;;;;;;;9.71;77.92;98542.09;1651719;85;21575;-57
2023/03/23 01:08:07;;;;;;;9.00;5.37;;;;;;;9.76;77.97;98556.50;1646882;83;21054;-57
2023/03/23 01:10:33;;;;;;;5.47;4.80;;;;;;;9.71;78.14;98557.72;1638983;84;21017;-58
2023/03/23 01:13:00;;;;;;;6.53;4.97;;;;;;;9.69;78.19;98560.88;1656212;84;21584;-57
2023/03/23 01:15:28;;;;;;;10.82;5.25;;;;;;;9.64;78.28;98558.11;1645817;85;21088;-59
2023/03/23 01:17:56;;;;;;;5.62;4.97;;;;;;;9.61;78.29;98562.69;1649869;83;21069;-58
2023/03/23 01:20:23;;;;;;;7.03;5.25;;;;;;;9.56;78.46;98552.53;1649062;83;21027;-57
2023/03/23 01:22:49;;;;;;;;;;;;;;;9.54;78.41;98547.88;1656585;84;21058;-57
2023/03/23 01:25:16;;;;;;;10.23;4.92;;;;;;;9.50;78.68;98543.80;1648340;84;20444;-58
2023/03/23 01:27:42;;;;;;;5.80;4.97;;;;;;;9.46;78.31;98552.72;1650980;83;21062;-57
2023/03/23 01:30:11;;;;;;;8.48;5.22;;;;;;;9.38;77.93;98554.95;1654686;84;21657;-58
2023/03/23 01:32:39;;;;;;;14.87;5.65;;;;;;;9.31;78.49;98545.85;1656074;84;21101;-58
2023/03/23 01:35:06;;;;;;;;;;;;;;;9.26;79.77;98550.50;1647930;83;21058;-58
2023/03/23 01:37:32;;;;;;;6.60;4.90;;;;;;;9.19;78.98;98543.06;1652340;83;20107;-58
2023/03/23 01:39:59;;;;;;;8.33;5.15;;;;;;;9.14;78.77;98547.70;1641089;84;21459;-57
2023/03/23 01:42:32;;;;;;;6.67;5.17;;;;;;;9.10;78.86;98546.23;1645594;83;21651;-58
2023/03/23 01:45:19;;;;;;;6.55;4.85;;;;;;;9.06;78.97;98534.30;1652541;84;21059;-58
2023/03/23 01:47:52;;;;;;;7.35;5.05;;;;;;;9.01;79.04;98531.13;1603487;87;21141;-57
2023/03/23 01:50:22;;;;;;;10.10;5.65;;;;;;;8.97;78.75;98532.25;1649481;84;21066;-57
2023/03/23 01:52:51;;;;;;;9.78;5.08;;;;;;;8.88;78.53;98546.66;1646333;83;21074;-58
2023/03/23 01:55:18;;;;;;;8.60;5.15;;;;;;;8.80;78.78;98545.44;1637618;85;21096;-58
2023/03/23 01:57:45;;;;;;;9.95;5.42;;;;;;;8.76;78.86;98540.02;1638522;84;21257;-57
2023/03/23 02:00:16;;;;;;;9.38;5.22;;;;;;;8.72;79.43;98536.30;1639317;84;21559;-57
2023/03/23 02:02:46;;;;;;;10.65;5.40;;;;;;;8.71;79.12;98529.44;1646241;84;21559;-57
2023/03/23 02:05:17;;;;;;;8.05;5.37;;;;;;;8.69;79.20;98529.98;1648292;83;21058;-59
2023/03/23 02:07:45;;;;;;;12.35;5.62;;;;;;;8.67;79.65;98520.11;1647054;83;21039;-58
2023/03/23 02:10:11;;;;;;;9.53;5.53;;;;;;;8.63;79.61;98517.33;1639206;84;21076;-57
2023/03/23 02:12:38;;;;;;;9.55;5.90;;;;;;;8.58;79.92;98523.27;1647144;83;21090;-57
2023/03/23 02:15:06;;;;;;;8.68;5.45;;;;;;;8.52;79.94;98508.02;1647675;83;21084;-57
2023/03/23 02:17:35;;;;;;;8.03;6.35;;;;;;;8.46;80.09;98505.78;1650156;83;21026;-59
2023/03/23 02:20:08;;;;;;;8.73;5.80;;;;;;;8.44;79.96;98515.42;1642563;85;21161;-57
2023/03/23 02:22:50;;;;;;;8.75;5.35;;;;;;;8.42;80.37;98517.27;1645788;84;21038;-57
2023/03/23 02:25:30;;;;;;;8.20;5.80;;;;;;;8.36;80.47;98510.62;1652452;84;21113;-57
2023/03/23 02:28:29;;;;;;;8.50;5.47;;;;;;;8.34;80.80;98509.03;1611336;85;21129;-57
2023/03/23 02:31:17;;;;;;;9.20;5.87;;;;;;;8.28;80.99;98496.75;1648877;83;21039;-57
2023/03/23 02:33:54;;;;;;;8.68;5.28;;;;;;;8.20;81.13;98492.45;1650739;83;21541;-58
2023/03/23 02:36:43;;;;;;;7.72;5.42;;;;;;;8.12;81.18;98483.41;1643800;83;21094;-58
2023/03/23 02:39:30;;;;;;;9.13;5.83;;;;;;;8.08;81.18;98486.66;1649957;83;21002;-57
2023/03/23 02:42:00;;;;;;;6.78;5.53;;;;;;;8.09;81.09;98477.92;1631620;83;21082;-58
2023/03/23 02:44:30;;;;;;;8.38;5.90;;;;;;;8.08;81.28;98481.45;1651777;85;21086;-59
2023/03/23 02:46:59;;;;;;;6.78;5.55;;;;;;;8.07;81.26;98474.13;1654393;84;21472;-57
2023/03/23 02:49:28;;;;;;;9.33;6.37;;;;;;;8.06;81.71;98474.20;1655922;83;21120;-57
2023/03/23 02:51:58;;;;;;;9.43;5.83;;;;;;;8.06;82.07;98479.40;1652971;84;21046;-57
2023/03/23 02:54:26;;;;;;;6.35;5.62;;;;;;;8.06;81.30;98482.00;1643968;84;21529;-57
2023/03/23 02:56:54;;;;;;;11.38;6.47;;;;;;;8.07;81.46;98479.80;1655807;84;21540;-57
2023/03/23 02:59:21;;;;;;;10.68;5.33;;;;;;;8.07;81.64;98475.89;1649554;84;21102;-57
2023/03/23 03:02:00;;;;;;;7.95;5.62;;;;;;;8.09;81.47;98483.13;1646275;83;21607;-57
2023/03/23 03:04:30;;;;;;;7.20;6.10;;;;;;;8.08;81.36;98490.55;1645440;83;21074;-59
2023/03/23 03:07:09;;;;;;;8.28;5.53;;;;;;;8.06;81.64;98490.63;1650274;84;20990;-57
2023/03/23 03:09:57;;;;;;;7.83;5.72;;;;;;;8.08;81.85;98485.36;1644270;84;21506;-57
2023/03/23 03:12:48;;;;;;;10.80;6.12;;;;;;;8.11;81.70;98481.28;1654427;83;21030;-57
2023/03/23 03:15:38;;;;;;;9.88;5.58;;;;;;;8.14;82.07;98481.10;1646486;83;21141;-57
2023/03/23 03:18:21;;;;;;;7.90;5.80;;;;;;;8.18;82.18;98478.72;1649103;84;21048;-59
2023/03/23 03:20:58;;;;;;;8.18;5.87;;;;;;;8.19;82.08;98476.48;1639620;83;21062;-56
2023/03/23 03:23:27;;;;;;;10.53;6.20;;;;;;;8.23;82.06;98487.10;1654872;84;21019;-57
2023/03/23 03:25:57;;;;;;;8.18;5.55;;;;;;;8.29;82.83;98490.64;1654599;83;21031;-57
2023/03/23 03:28:26;;;;;;;8.98;6.17;;;;;;;8.36;81.77;98492.41;1646832;83;21636;-57
2023/03/23 03:30:56;;;;;;;10.28;6.70;;;;;;;8.42;82.56;98475.65;1651194;84;21051;-58
2023/03/23 03:33:27;;;;;;;7.33;5.70;;;;;;;8.48;82.14;98477.89;1641067;84;21017;-58
2023/03/23 03:35:56;;;;;;;8.28;5.50;;;;;;;8.54;82.09;98472.31;1645545;84;21603;-57
2023/03/23 03:38:22;;;;;;;7.97;5.97;;;;;;;8.61;82.21;98469.74;1657746;83;21019;-58
2023/03/23 03:40:48;;;;;;;7.20;5.40;;;;;;;8.69;82.15;98468.83;1650246;84;21675;-58
2023/03/23 03:43:15;;;;;;;9.13;5.55;;;;;;;8.74;82.04;98458.98;1648805;84;21011;-57
2023/03/23 03:45:41;;;;;;;8.30;5.90;;;;;;;8.80;81.99;98467.36;1656362;83;21114;-57
2023/03/23 03:48:08;;;;;;;8.07;5.80;;;;;;;8.83;81.89;98467.17;1646920;83;21026;-59
2023/03/23 03:50:34;;;;;;;8.48;5.58;;;;;;;8.89;82.14;98453.78;1645154;84;21054;-56
2023/03/23 03:53:01;;;;;;;8.68;5.95;;;;;;;8.93;82.03;98450.05;1639884;84;21076;-57
2023/03/23 03:55:27;;;;;;;9.83;5.20;;;;;;;8.97;82.08;98450.25;1643197;84;21155;-57
2023/03/23 03:57:55;;;;;;;10.20;5.27;;;;;;;9.02;82.05;98467.73;1653019;84;21117;-57
2023/03/23 04:00:22;;;;;;;8.05;5.30;;;;;;;9.06;82.02;98461.39;1648477;84;20995;-58
2023/03/23 04:02:53;;;;;;;9.28;6.15;;;;;;;9.10;82.04;98453.78;1645723;84;21064;-57
2023/03/23 04:05:18;;;;;;;8.63;5.75;;;;;;;9.11;81.96;98451.54;1649216;83;21093;-57
2023/03/23 04:07:45;;;;;;;8.05;5.50;;;;;;;9.08;81.96;98441.31;1653791;83;20976;-58
2023/03/23 04:10:13;;;;;;;8.53;5.50;;;;;;;9.07;81.89;98435.72;1660729;83;21465;-59
2023/03/23 04:12:40;;;;;;;7.67;5.37;;;;;;;9.01;81.94;98437.40;1652041;84;21072;-58
2023/03/23 04:15:07;;;;;;;7.87;5.67;;;;;;;8.96;81.86;98436.84;1650888;84;21069;-57
2023/03/23 04:17:35;;;;;;;6.45;5.50;;;;;;;8.90;81.94;98427.64;1644012;84;21108;-59
2023/03/23 04:20:12;;;;;;;8.13;5.65;;;;;;;8.86;81.96;98420.97;1651685;83;21034;-57
2023/03/23 04:22:31;;;;;;;11.18;5.70;;;;;;;8.81;82.02;98429.98;1648272;83;21070;-59
2023/03/23 04:25:00;;;;;;;8.65;5.25;;;;;;;8.83;82.26;98438.54;1641336;84;21043;-58
2023/03/23 04:27:28;;;;;;;7.15;5.10;;;;;;;8.86;82.30;98430.55;1644817;83;21189;-58
2023/03/23 04:29:57;;;;;;;11.00;5.15;;;;;;;8.91;82.37;98438.91;1654800;83;21070;-59
2023/03/23 04:32:28;;;;;;;6.37;5.12;;;;;;;8.98;82.24;98434.98;1638294;84;21527;-58
2023/03/23 04:34:55;;;;;;;6.85;5.47;;;;;;;9.05;82.28;98435.00;1651981;83;21106;-57
2023/03/23 04:37:25;;;;;;;9.63;5.05;;;;;;;9.07;82.13;98425.30;1643511;84;20977;-57
2023/03/23 04:39:49;;;;;;;6.62;5.15;;;;;;;9.05;82.12;98427.19;1634473;84;21703;-57
2023/03/23 04:42:15;;;;;;;8.95;5.60;;;;;;;9.06;82.20;98421.03;1654439;83;21082;-57
2023/03/23 04:44:43;;;;;;;8.23;5.85;;;;;;;9.05;82.37;98426.36;1651723;84;21544;-58
2023/03/23 04:47:17;;;;;;;6.40;5.30;;;;;;;9.04;82.46;98418.98;1639729;84;21147;-60
2023/03/23 04:49:38;;;;;;;7.80;5.10;;;;;;;9.03;82.40;98416.02;1649064;84;21596;-58
2023/03/23 04:52:05;;;;;;;7.85;5.62;;;;;;;9.03;82.50;98413.89;1655649;83;21101;-57
2023/03/23 04:54:31;;;;;;;7.78;4.90;;;;;;;9.04;82.44;98405.97;1643880;85;21015;-57
2023/03/23 04:56:58;;;;;;;8.83;5.55;;;;;;;9.05;82.47;98405.05;1650036;84;20999;-57
2023/03/23 04:59:27;;;;;;;8.78;5.87;;;;;;;9.05;82.52;98395.94;1631283;85;21074;-58
2023/03/23 05:01:55;;;;;;;10.15;5.70;;;;;;;9.07;82.55;98392.75;1597020;86;21061;-59
2023/03/23 05:04:24;;;;;;;8.63;5.62;;;;;;;9.09;82.40;98388.30;1646624;84;21039;-57
2023/03/23 05:06:52;;;;;;;7.22;5.20;;;;;;;9.10;82.39;98379.58;1648614;83;21051;-59
2023/03/23 05:09:19;;;;;;;9.50;6.50;;;;;;;9.12;82.33;98392.01;1648569;84;21058;-57
2023/03/23 05:11:46;;;;;;;8.45;5.67;;;;;;;9.15;82.33;98387.91;1642553;84;21050;-58
2023/03/23 05:14:12;;;;;;;9.13;5.05;;;;;;;9.17;82.24;98386.05;1649012;83;21013;-58
2023/03/23 05:16:39;;;;;;;8.03;5.22;;;;;;;9.18;82.16;98383.80;1646802;84;21121;-58
2023/03/23 05:19:07;;;;;;;7.78;5.10;;;;;;;9.22;82.11;98381.04;1649323;84;21031;-57
2023/03/23 05:21:34;;;;;;;7.87;5.72;;;;;;;9.23;81.99;98382.22;1662612;83;21023;-59
2023/03/23 05:24:00;;;;;;;9.35;5.50;;;;;;;9.27;81.94;98371.14;1648503;84;21030;-59
2023/03/23 05:26:30;;;;;;;7.05;5.00;;;;;;;9.28;81.80;98367.15;1648419;84;20976;-58
2023/03/23 05:28:56;;;;;;;6.37;5.28;;;;;;;9.32;81.77;98370.38;1658104;84;21054;-57
2023/03/23 05:31:24;;;;;;;8.65;5.80;;;;;;;9.33;81.70;98370.77;1654130;84;21006;-59
2023/03/23 05:33:52;;;;;;;7.17;5.42;;;;;;;9.35;81.71;98375.39;1652706;84;21026;-57
2023/03/23 05:36:18;;;;;;;7.05;5.45;;;;;;;9.39;81.78;98370.37;1662043;84;21138;-57
2023/03/23 05:38:47;;;;;;;10.65;6.25;;;;;;;9.41;81.69;98373.73;1664471;84;21008;-58
2023/03/23 05:41:13;;;;;;;6.55;5.55;;;;;;;9.45;81.45;98376.49;1659841;83;21558;-60
2023/03/23 05:43:39;;;;;;;6.87;5.20;;;;;;;9.49;81.53;98380.56;1649071;84;21133;-57
2023/03/23 05:46:07;;;;;;;9.35;5.87;;;;;;;9.52;81.45;98373.88;1643703;84;21050;-58
2023/03/23 05:48:38;;;;;;;10.48;5.35;;;;;;;9.56;81.51;98363.61;1623906;86;22756;-60
2023/03/23 05:51:05;;;;;;;10.72;6.17;;;;;;;9.59;81.35;98363.41;1649729;83;21035;-58
2023/03/23 05:53:32;;;;;;;9.35;5.83;;;;;;;9.63;81.25;98364.89;1645579;83;21106;-59
2023/03/23 05:56:01;;;;;;;10.00;5.55;;;;;;;9.64;81.16;98358.73;1644193;84;20995;-58
2023/03/23 05:58:28;;;;;;;8.58;4.97;;;;;;;9.69;81.01;98349.77;1649178;82;21034;-57
2023/03/23 06:00:56;;;;;;;8.80;5.58;;;;;;;9.70;81.19;98344.47;1636255;85;20988;-56
2023/03/23 06:03:22;;;;;;;9.93;5.65;;;;;;;9.77;81.09;98352.70;1649282;84;20963;-56
2023/03/23 06:05:50;;;;;;;8.58;5.00;;;;;;;9.81;81.03;98363.32;1656317;83;21001;-57
2023/03/23 06:08:16;;;;;;;;;;;;;;;9.89;80.90;98358.44;1650327;85;21018;-56
2023/03/23 06:10:42;;;;;;;6.85;5.28;;;;;;;9.93;80.78;98363.80;1658678;83;20218;-57
2023/03/23 06:13:08;;;;;;;10.82;5.80;;;;;;;9.92;80.49;98369.13;1652233;83;21133;-57
2023/03/23 06:15:34;;;;;;;9.60;5.60;;;;;;;9.92;80.68;98384.30;1644405;84;21053;-56
2023/03/23 06:18:02;;;;;;;7.17;5.33;;;;;;;9.91;80.67;98381.31;1659974;84;21062;-57
2023/03/23 06:20:30;;;;;;;7.58;5.30;;;;;;;9.89;80.42;98391.03;1646739;85;21051;-57
2023/03/23 06:22:56;;;;;;;8.08;5.78;;;;;;;9.88;80.45;98392.41;1652467;82;21125;-57
2023/03/23 06:25:23;;;;;;;7.92;5.78;;;;;;;9.85;80.48;98405.18;1654380;83;21490;-56
2023/03/23 06:27:51;;;;;;;6.87;5.85;;;;;;;9.82;80.57;98397.56;1657308;84;21003;-57
2023/03/23 06:30:20;;;;;;;7.28;5.67;;;;;;;9.81;80.65;98380.27;1655644;83;21070;-57
2023/03/23 06:32:47;;;;;;;7.78;4.87;;;;;;;9.79;80.72;98371.70;1658778;84;21014;-56
2023/03/23 06:35:14;;;;;;;8.68;5.12;;;;;;;9.80;80.88;98374.66;1634818;86;21663;-57
2023/03/23 06:37:41;;;;;;;6.55;4.83;;;;;;;9.80;80.99;98367.70;1650292;84;21035;-57
2023/03/23 06:40:11;;;;;;;10.43;4.70;;;;;;;9.84;81.14;98353.98;1608470;87;21065;-56
2023/03/23 06:42:38;;;;;;;7.90;5.17;;;;;;;10.00;81.30;98359.86;1620510;86;21102;-58
2023/03/23 06:45:07;;;;;;;12.68;8.83;;;;;;;10.24;81.41;98352.15;1626926;86;21072;-57
2023/03/23 06:47:33;;;;;;;16.15;11.83;;;;;;;10.37;80.85;98331.80;1611996;87;21082;-57
2023/03/23 06:49:59;;;;;;;8.88;6.92;;;;;;;10.47;80.88;98325.84;1647470;84;21093;-56
2023/03/23 06:52:26;;;;;;;9.33;5.75;;;;;;;10.63;80.85;98325.59;1650303;83;21075;-56
2023/03/23 06:54:53;;;;;;;7.42;4.30;;;;;;;10.92;81.01;98332.70;1647816;85;21076;-57
2023/03/23 06:57:20;;;;;;;6.40;4.53;;;;;;;11.21;80.71;98314.11;1654016;83;21568;-57
2023/03/23 06:59:46;;;;;;;5.60;3.75;;;;;;;11.39;80.44;98307.53;1644102;85;21054;-56
2023/03/23 07:02:14;;;;;;;6.05;3.95;;;;;;;11.53;80.30;98314.36;1647215;85;21773;-57
2023/03/23 07:04:41;;;;;;;5.80;5.03;;;;;;;11.74;80.61;98313.75;1637413;84;21155;-56
2023/03/23 07:07:09;;;;;;;6.27;4.40;;;;;;;11.86;80.02;98296.67;1648873;84;21717;-57
2023/03/23 07:09:36;;;;;;;7.70;4.30;;;;;;;11.93;80.30;98293.59;1632702;85;21532;-57
2023/03/23 07:12:03;;;;;;;7.15;4.08;;;;;;;11.79;79.73;98291.53;1656088;84;21043;-57
2023/03/23 07:14:30;;;;;;;6.50;4.42;;;;;;;11.79;79.73;98291.53;1650722;84;21583;-57
2023/03/23 07:16:56;;;;;;;14.93;9.28;;;;;;;11.91;79.53;98312.03;1647052;84;21061;-57
2023/03/23 07:19:22;;;;;;;8.23;5.33;;;;;;;11.84;79.58;98299.84;1649528;84;21062;-57
2023/03/23 07:21:49;;;;;;;9.25;5.72;;;;;;;11.71;78.68;98282.59;1639394;85;21116;-57
2023/03/23 07:24:17;;;;;;;7.05;5.33;;;;;;;11.77;79.05;98288.19;1637655;85;21113;-57
2023/03/23 07:26:43;;;;;;;7.03;5.05;;;;;;;11.74;78.77;98288.42;1642708;83;21073;-56
2023/03/23 07:29:09;;;;;;;7.60;5.85;;;;;;;11.70;78.56;98293.51;1651790;83;21015;-57
2023/03/23 07:31:36;;;;;;;6.75;4.97;;;;;;;11.67;77.79;98298.97;1654566;83;21067;-57
2023/03/23 07:34:03;;;;;;;8.13;4.90;;;;;;;12.08;78.29;98283.30;1653528;84;21543;-57
2023/03/23 07:36:30;;;;;;;7.25;4.30;;;;;;;12.08;78.29;98283.30;1655069;83;21153;-56
2023/03/23 07:38:58;;;;;;;8.33;4.90;;;;;;;12.25;77.63;98280.20;1649317;82;21096;-57
2023/03/23 07:41:24;;;;;;;;;;;;;;;12.43;77.86;98274.50;1648537;84;21058;-56
2023/03/23 07:43:50;;;;;;;7.70;5.30;;;;;;;12.49;75.63;98280.10;1624352;86;21030;-56
2023/03/23 07:46:17;;;;;;;6.97;4.95;;;;;;;12.47;76.73;98279.86;1651296;84;21553;-56
2023/03/23 07:48:43;;;;;;;7.27;4.80;;;;;;;12.51;77.12;98279.97;1654447;83;21068;-56
2023/03/23 07:51:09;;;;;;;7.45;4.78;;;;;;;12.64;77.88;98268.89;1636634;86;21050;-56
2023/03/23 07:53:36;;;;;;;6.28;4.70;;;;;;;12.84;77.44;98271.24;1644799;84;21097;-56
2023/03/23 07:56:03;;;;;;;7.80;4.93;;;;;;;12.88;76.93;98267.89;1653337;85;21081;-56
2023/03/23 07:58:30;;;;;;;7.12;4.62;;;;;;;12.88;76.37;98273.13;1642060;84;21631;-56
2023/03/23 08:00:57;;;;;;;8.93;4.23;;;;;;;12.93;76.07;98277.53;1654931;84;21045;-56
2023/03/23 08:03:24;;;;;;;7.03;4.90;;;;;;;12.81;75.64;98279.34;1652188;84;21106;-56
2023/03/23 08:05:51;;;;;;;8.27;4.67;;;;;;;12.84;76.43;98283.51;1656335;83;21033;-57
2023/03/23 08:08:18;;;;;;;;;;;;;;;13.06;77.00;98287.39;1653359;84;21852;-56
2023/03/23 08:10:44;;;;;;;;;;;;;;;13.17;76.00;98299.16;1657880;83;20425;-56
2023/03/23 08:13:11;;;;;;;7.25;4.70;;;;;;;13.15;76.54;98306.30;1661566;84;20102;-60
2023/03/23 08:15:37;;;;;;;6.53;4.70;;;;;;;13.15;76.44;98303.67;1653175;85;21516;-56
2023/03/23 08:18:05;;;;;;;9.35;4.92;;;;;;;13.07;75.31;98306.56;1645803;83;21182;-56
2023/03/23 08:20:32;;;;;;;6.08;4.60;;;;;;;12.63;74.09;98306.97;1649855;83;21030;-55
2023/03/23 08:22:59;;;;;;;7.05;4.40;;;;;;;12.39;75.41;98300.08;1642608;84;21069;-56
2023/03/23 08:25:26;;;;;;;9.50;4.95;;;;;;;12.31;76.38;98309.83;1647827;85;21141;-56
2023/03/23 08:27:54;;;;;;;7.08;4.08;;;;;;;12.34;76.88;98300.91;1656070;84;21067;-56
2023/03/23 08:30:26;;;;;;;6.33;4.30;;;;;;;12.22;76.21;98309.23;1652483;85;21014;-56
2023/03/23 08:32:52;;;;;;;5.92;3.90;;;;;;;12.02;76.16;98309.92;1654355;84;21155;-57
2023/03/23 08:35:21;;;;;;;8.87;5.50;;;;;;;11.89;76.17;98306.56;1645926;83;21054;-57
2023/03/23 08:37:51;;;;;;;6.60;4.12;;;;;;;11.73;76.35;98307.66;1649835;84;21147;-56
2023/03/23 08:40:19;;;;;;;16.75;8.50;;;;;;;11.73;76.35;98307.66;1647448;84;21062;-57
2023/03/23 08:42:44;;;;;;;15.45;9.43;;;;;;;11.67;77.02;98299.45;1649696;85;21098;-56
2023/03/23 08:45:14;;;;;;;7.90;4.33;;;;;;;11.59;76.99;98311.30;1644879;84;21162;-57
2023/03/23 08:47:41;;;;;;;7.78;4.05;;;;;;;11.47;77.44;98304.84;1645272;84;21003;-56
2023/03/23 08:50:12;;;;;;;6.75;4.42;;;;;;;11.47;77.44;98304.84;1654179;84;21667;-58
2023/03/23 08:52:38;;;;;;;10.25;4.75;;;;;;;11.53;77.49;98299.16;1647342;84;21468;-56
2023/03/23 08:55:08;;;;;;;7.30;4.12;;;;;;;11.46;77.34;98304.49;1637954;85;21564;-57
2023/03/23 08:57:35;;;;;;;6.33;4.00;;;;;;;11.43;77.79;98293.31;1659381;83;21082;-56
2023/03/23 09:00:13;;;;;;;6.17;3.92;;;;;;;11.34;77.92;98278.31;1644034;85;21053;-57
2023/03/23 09:02:34;;;;;;;8.50;4.35;;;;;;;11.38;77.72;98288.89;1630891;85;21090;-57
2023/03/23 09:05:01;;;;;;;;;;;;;;;11.35;77.88;98285.20;1658585;83;21509;-57
2023/03/23 09:07:29;;;;;;;7.00;4.53;;;;;;;11.34;77.84;98294.00;1645063;85;20246;-57
2023/03/23 09:09:55;;;;;;;12.93;8.60;;;;;;;11.32;78.18;98288.03;1635109;85;21021;-56
2023/03/23 09:12:23;;;;;;;8.28;5.80;;;;;;;11.31;78.46;98287.66;1648556;85;21066;-56
2023/03/23 09:14:49;;;;;;;;;;;;;;;11.31;78.57;98285.52;1656143;83;21048;-57
2023/03/23 09:17:15;;;;;;;9.20;5.47;;;;;;;11.27;78.43;98297.98;1646060;84;20122;-56
2023/03/23 09:19:42;;;;;;;6.13;3.57;;;;;;;11.23;78.76;98299.17;1654954;84;20995;-58
2023/03/23 09:22:08;;;;;;;7.45;3.72;;;;;;;11.05;79.13;98290.03;1641385;83;21321;-57
2023/03/23 09:24:35;;;;;;;8.55;4.80;;;;;;;10.96;79.76;98287.14;1651357;85;21119;-57
2023/03/23 09:27:01;;;;;;;5.67;5.08;;;;;;;10.92;79.52;98279.62;1651960;84;21130;-56
2023/03/23 09:29:28;;;;;;;6.97;5.17;;;;;;;10.91;79.35;98284.02;1648530;85;21011;-56
2023/03/23 09:31:55;;;;;;;5.17;3.80;;;;;;;10.92;79.71;98287.01;1654657;83;21074;-56
2023/03/23 09:34:22;;;;;;;5.25;3.40;;;;;;;10.97;79.89;98288.80;1624142;85;21048;-57
2023/03/23 09:36:51;;;;;;;6.45;4.92;;;;;;;11.01;80.19;98284.20;1653098;83;21619;-57
2023/03/23 09:39:24;;;;;;;4.50;3.17;;;;;;;11.04;80.54;98290.98;1644308;84;21075;-57
2023/03/23 09:42:03;;;;;;;4.60;3.40;;;;;;;11.05;81.43;98290.03;1650633;83;21066;-57
2023/03/23 09:44:58;;;;;;;3.80;2.77;;;;;;;11.07;80.72;98298.61;1639515;84;21113;-56
2023/03/23 09:47:33;;;;;;;3.80;3.33;;;;;;;11.05;81.04;98300.48;1651114;84;21562;-57
2023/03/23 09:50:06;;;;;;;5.08;4.40;;;;;;;11.06;81.81;98299.53;1645185;84;21521;-57
2023/03/23 09:52:58;;;;;;;4.58;3.30;;;;;;;11.05;81.26;98297.39;1645683;85;21099;-56
2023/03/23 09:55:25;;;;;;;3.83;2.10;;;;;;;11.17;81.49;98296.98;1649852;83;21067;-57
2023/03/23 09:58:23;;;;;;;5.90;4.17;;;;;;;11.13;83.17;98292.93;1646831;84;20984;-58
2023/03/23 10:00:53;;;;;;;5.97;3.25;;;;;;;11.11;82.50;98302.65;1631428;85;21002;-57
2023/03/23 10:03:23;;;;;;;3.83;2.00;;;;;;;11.17;82.22;98302.20;1615983;86;21090;-57
2023/03/23 10:05:53;;;;;;;1.85;1.57;;;;;;;11.16;82.87;98303.16;1640165;84;21190;-57
2023/03/23 10:08:26;;;;;;;3.08;2.33;;;;;;;11.18;82.63;98293.44;1646990;84;21567;-58
2023/03/23 10:11:13;;;;;;;2.72;1.85;;;;;;;11.20;83.33;98299.36;1641223;83;21538;-59
2023/03/23 10:13:48;;;;;;;2.02;1.80;;;;;;;11.29;83.10;98307.86;1641851;83;21056;-59
2023/03/23 10:16:21;;;;;;;2.62;1.50;;;;;;;11.42;83.35;98302.08;1657375;83;21571;-56
2023/03/23 10:18:55;;;;;;;4.65;2.02;;;;;;;11.56;83.19;98302.84;1662064;83;21155;-57
2023/03/23 10:21:24;;;;;;;2.05;1.55;;;;;;;11.74;83.05;98303.28;1655368;84;21133;-57
2023/03/23 10:24:00;;;;;;;2.50;2.05;;;;;;;11.91;82.21;98302.05;1671092;83;21053;-57
2023/03/23 10:26:41;;;;;;;4.00;1.77;;;;;;;11.90;82.25;98296.44;1651738;85;21020;-60
2023/03/23 10:29:18;;;;;;;2.55;1.67;;;;;;;11.91;81.67;98283.74;1648996;83;21141;-60
2023/03/23 10:31:54;;;;;;;1.98;1.47;;;;;;;11.91;81.67;98283.74;1671692;84;21085;-58
2023/03/23 10:34:24;;;;;;;2.83;1.62;;;;;;;11.88;81.93;98277.44;1655631;84;21069;-58
2023/03/23 10:36:57;;;;;;;1.98;1.60;;;;;;;11.97;81.33;98298.97;1655491;83;21113;-57
2023/03/23 10:39:27;;;;;;;1.40;1.30;;;;;;;11.97;81.33;98298.97;1663262;84;21078;-57
2023/03/23 10:41:54;;;;;;;1.77;1.37;;;;;;;12.06;82.24;98308.73;1649266;85;21081;-58
2023/03/23 10:44:25;;;;;;;1.92;1.70;;;;;;;12.04;81.21;98302.77;1651505;83;21042;-57
2023/03/23 10:47:03;;;;;;;2.67;1.87;;;;;;;12.04;81.21;98302.77;1651594;84;21764;-56
2023/03/23 10:49:51;;;;;;;4.22;2.00;;;;;;;12.03;81.87;98301.12;1655606;84;20996;-56
2023/03/23 10:52:42;;;;;;;2.45;1.55;;;;;;;12.13;81.87;98294.25;1648347;84;21762;-56
2023/03/23 10:55:14;;;;;;;2.58;1.47;;;;;;;12.13;81.21;98292.94;1645606;83;21038;-56
2023/03/23 10:57:45;;;;;;;2.20;1.55;;;;;;;12.11;81.57;98296.14;1650961;83;21588;-56
2023/03/23 11:00:27;;;;;;;2.55;1.82;;;;;;;12.09;81.42;98298.03;1652676;84;21057;-56
2023/03/23 11:03:03;;;;;;;2.80;2.12;;;;;;;12.18;81.76;98293.87;1650877;84;21180;-56
2023/03/23 11:05:46;;;;;;;3.52;2.22;;;;;;;12.23;81.72;98289.95;1652975;84;21066;-56
2023/03/23 11:08:19;;;;;;;3.87;2.80;;;;;;;12.26;81.51;98292.81;1645301;83;21084;-58
2023/03/23 11:11:09;;;;;;;3.42;3.02;;;;;;;12.19;81.49;98291.16;1642268;84;21075;-56
2023/03/23 11:13:43;;;;;;;2.45;2.08;;;;;;;12.22;82.00;98289.61;1650990;83;21569;-56
2023/03/23 11:16:11;;;;;;;2.20;2.00;;;;;;;12.34;81.64;98283.07;1646521;84;21596;-56
2023/03/23 11:18:42;;;;;;;4.53;2.30;;;;;;;12.31;81.43;98277.11;1650820;84;21086;-56
2023/03/23 11:21:12;;;;;;;4.10;2.50;;;;;;;12.35;81.43;98271.64;1639001;84;21105;-56
2023/03/23 11:23:42;;;;;;;2.35;1.75;;;;;;;12.40;81.42;98269.50;1644945;83;21324;-56
2023/03/23 11:26:17;;;;;;;1.92;1.55;;;;;;;12.30;81.08;98241.44;1651318;83;21087;-56
2023/03/23 11:29:04;;;;;;;2.85;1.82;;;;;;;12.51;80.90;98282.59;1647235;83;21033;-58
2023/03/23 11:31:33;;;;;;;2.37;1.60;;;;;;;12.84;81.12;98265.17;1658512;83;20999;-56
2023/03/23 11:34:18;;;;;;;3.70;2.35;;;;;;;13.42;81.09;98269.19;1656755;83;21146;-56
2023/03/23 11:36:54;;;;;;;3.30;2.62;;;;;;;14.27;79.83;98272.62;1650558;85;21081;-56
2023/03/23 11:39:29;;;;;;;3.65;2.00;;;;;;;14.76;78.60;98271.05;1644173;84;21094;-56
2023/03/23 11:41:59;;;;;;;1.65;1.20;;;;;;;15.34;80.02;98267.16;1644728;84;21118;-56
2023/03/23 11:44:35;;;;;;;1.77;1.42;;;;;;;15.80;69.95;98251.19;1644747;84;21100;-57
2023/03/23 11:47:07;;;;;;;4.50;1.35;;;;;;;15.98;76.73;98267.56;1649916;84;21698;-56
2023/03/23 11:49:43;;;;;;;1.35;1.17;;;;;;;16.53;74.69;98270.30;1646530;84;21574;-57
2023/03/23 11:52:22;;;;;;;1.60;1.07;;;;;;;16.70;75.63;98262.09;1643319;83;21620;-58